createdAt,value
2018-09-02T00:00:24.447Z,14.84
2018-09-02T00:01:24.919Z,14.87
2018-09-02T00:02:25.391Z,14.93
2018-09-02T00:03:25.918Z,14.96
2018-09-02T00:04:26.334Z,15.00
2018-09-02T00:05:26.806Z,15.02
2018-09-02T00:06:27.282Z,15.05
2018-09-02T00:07:27.751Z,15.07
2018-09-02T00:08:28.222Z,15.11
2018-09-02T00:09:28.694Z,15.15
2018-09-02T00:10:29.170Z,15.17
2018-09-02T00:11:29.641Z,15.20
2018-09-02T00:12:30.114Z,15.22
2018-09-02T00:13:30.586Z,15.27
2018-09-02T00:14:31.057Z,15.31
2018-09-02T00:15:31.535Z,15.34
2018-09-02T00:16:32.005Z,15.35
2018-09-02T00:17:32.478Z,15.37
2018-09-02T00:18:32.951Z,15.40
2018-09-02T00:19:33.425Z,15.40
2018-09-02T00:20:33.982Z,15.38
2018-09-02T00:21:34.371Z,15.36
2018-09-02T00:22:34.847Z,15.31
2018-09-02T00:23:35.317Z,15.21
2018-09-02T00:24:35.792Z,15.11
2018-09-02T00:25:36.265Z,15.01
2018-09-02T00:26:36.738Z,14.89
2018-09-02T00:27:37.212Z,14.77
2018-09-02T00:28:37.684Z,14.63
2018-09-02T00:29:38.158Z,14.47
2018-09-02T00:30:38.629Z,14.32
2018-09-02T00:31:39.107Z,14.19
2018-09-02T00:32:39.581Z,14.06
2018-09-02T00:33:40.093Z,13.91
2018-09-02T00:34:40.520Z,13.77
2018-09-02T00:35:40.999Z,13.62
2018-09-02T00:36:41.464Z,13.47
2018-09-02T00:37:41.954Z,13.30
2018-09-02T00:38:42.409Z,13.12
2018-09-02T00:39:42.880Z,12.93
2018-09-02T00:40:43.382Z,12.76
2018-09-02T00:41:43.822Z,12.61
2018-09-02T00:42:44.295Z,12.49
2018-09-02T00:43:44.764Z,12.40
2018-09-02T00:44:45.235Z,12.33
2018-09-02T00:45:45.704Z,12.28
2018-09-02T00:46:46.177Z,12.25
2018-09-02T00:47:46.644Z,12.27
2018-09-02T00:48:47.113Z,12.29
2018-09-02T00:49:47.584Z,12.32
2018-09-02T00:50:48.056Z,12.37
2018-09-02T00:51:48.524Z,12.42
2018-09-02T00:52:48.993Z,12.47
2018-09-02T00:53:49.462Z,12.55
2018-09-02T00:54:49.937Z,12.62
2018-09-02T00:55:50.402Z,12.70
2018-09-02T00:56:50.873Z,12.79
2018-09-02T00:57:51.341Z,12.87
2018-09-02T00:58:51.811Z,12.97
2018-09-02T00:59:52.281Z,13.08
2018-09-02T01:00:52.749Z,13.19
2018-09-02T01:01:53.222Z,13.28
2018-09-02T01:02:53.690Z,13.37
2018-09-02T01:03:54.162Z,13.45
2018-09-02T01:04:54.630Z,13.55
2018-09-02T01:05:55.098Z,13.63
2018-09-02T01:06:55.571Z,13.72
2018-09-02T01:07:56.041Z,13.80
2018-09-02T01:08:56.561Z,13.86
2018-09-02T01:09:56.981Z,13.93
2018-09-02T01:10:57.455Z,14.04
2018-09-02T01:11:57.924Z,14.09
2018-09-02T01:12:58.394Z,14.17
2018-09-02T01:13:58.908Z,14.24
2018-09-02T01:14:59.334Z,14.30
2018-09-02T01:15:59.804Z,14.36
2018-09-02T01:17:00.283Z,14.41
2018-09-02T01:18:00.745Z,14.46
2018-09-02T01:19:01.217Z,14.52
2018-09-02T01:20:01.688Z,14.58
2018-09-02T01:21:02.159Z,14.61
2018-09-02T01:22:02.631Z,14.64
2018-09-02T01:23:03.159Z,14.70
2018-09-02T01:24:03.575Z,14.73
2018-09-02T01:25:04.046Z,14.76
2018-09-02T01:26:04.517Z,14.78
2018-09-02T01:27:04.991Z,14.84
2018-09-02T01:28:05.463Z,14.87
2018-09-02T01:29:05.932Z,14.88
2018-09-02T01:30:06.407Z,14.93
2018-09-02T01:31:06.878Z,14.95
2018-09-02T01:32:07.358Z,14.96
2018-09-02T01:33:07.821Z,14.98
2018-09-02T01:34:08.296Z,15.00
2018-09-02T01:35:08.769Z,15.01
2018-09-02T01:36:09.241Z,15.02
2018-09-02T01:37:09.714Z,15.05
2018-09-02T01:38:10.185Z,15.06
2018-09-02T01:39:10.660Z,15.10
2018-09-02T01:40:11.132Z,15.11
2018-09-02T01:41:11.606Z,15.14
2018-09-02T01:42:12.077Z,15.17
2018-09-02T01:43:12.550Z,15.18
2018-09-02T01:44:13.076Z,15.17
2018-09-02T01:45:13.498Z,15.15
2018-09-02T01:46:13.970Z,15.12
2018-09-02T01:47:14.445Z,15.05
2018-09-02T01:48:14.919Z,14.95
2018-09-02T01:49:15.390Z,14.85
2018-09-02T01:50:15.865Z,14.75
2018-09-02T01:51:16.341Z,14.62
2018-09-02T01:52:16.811Z,14.49
2018-09-02T01:53:17.284Z,14.33
2018-09-02T01:54:17.757Z,14.17
2018-09-02T01:55:18.228Z,14.03
2018-09-02T01:56:18.703Z,13.88
2018-09-02T01:57:19.174Z,13.74
2018-09-02T01:58:19.646Z,13.57
2018-09-02T01:59:20.118Z,13.43
2018-09-02T02:00:20.590Z,13.28
2018-09-02T02:01:21.061Z,13.12
2018-09-02T02:02:21.533Z,12.94
2018-09-02T02:03:22.007Z,12.75
2018-09-02T02:04:22.476Z,12.57
2018-09-02T02:05:22.947Z,12.41
2018-09-02T02:06:23.420Z,12.30
2018-09-02T02:07:23.888Z,12.21
2018-09-02T02:08:24.358Z,12.15
2018-09-02T02:09:24.829Z,12.10
2018-09-02T02:10:25.298Z,12.08
2018-09-02T02:11:25.768Z,12.08
2018-09-02T02:12:26.239Z,12.10
2018-09-02T02:13:26.709Z,12.12
2018-09-02T02:14:27.178Z,12.16
2018-09-02T02:15:27.645Z,12.20
2018-09-02T02:16:28.115Z,12.23
2018-09-02T02:17:28.584Z,12.29
2018-09-02T02:18:29.054Z,12.37
2018-09-02T02:19:29.575Z,12.43
2018-09-02T02:20:29.993Z,12.50
2018-09-02T02:21:30.461Z,12.57
2018-09-02T02:22:30.931Z,12.64
2018-09-02T02:23:31.401Z,12.71
2018-09-02T02:24:31.883Z,12.81
2018-09-02T02:25:32.341Z,12.88
2018-09-02T02:26:32.809Z,12.97
2018-09-02T02:27:33.278Z,13.07
2018-09-02T02:28:33.749Z,13.17
2018-09-02T02:29:34.269Z,13.25
2018-09-02T02:30:34.689Z,13.35
2018-09-02T02:31:35.159Z,13.44
2018-09-02T02:32:35.628Z,13.50
2018-09-02T02:33:36.099Z,13.58
2018-09-02T02:34:36.567Z,13.65
2018-09-02T02:35:37.042Z,13.72
2018-09-02T02:36:37.509Z,13.80
2018-09-02T02:37:37.979Z,13.86
2018-09-02T02:38:38.449Z,13.89
2018-09-02T02:39:38.923Z,13.96
2018-09-02T02:40:39.393Z,14.05
2018-09-02T02:41:39.861Z,14.09
2018-09-02T02:42:40.333Z,14.14
2018-09-02T02:43:40.803Z,14.19
2018-09-02T02:44:41.326Z,14.23
2018-09-02T02:45:41.750Z,14.27
2018-09-02T02:46:42.218Z,14.34
2018-09-02T02:47:42.688Z,14.38
2018-09-02T02:48:43.163Z,14.42
2018-09-02T02:49:43.633Z,14.45
2018-09-02T02:50:44.104Z,14.48
2018-09-02T02:51:44.573Z,14.51
2018-09-02T02:52:45.046Z,14.55
2018-09-02T02:53:45.518Z,14.56
2018-09-02T02:54:45.989Z,14.61
2018-09-02T02:55:46.464Z,14.64
2018-09-02T02:56:46.938Z,14.66
2018-09-02T02:57:47.409Z,14.67
2018-09-02T02:58:47.878Z,14.71
2018-09-02T02:59:48.351Z,14.73
2018-09-02T03:00:48.823Z,14.75
2018-09-02T03:01:49.295Z,14.78
2018-09-02T03:02:49.769Z,14.80
2018-09-02T03:03:50.241Z,14.82
2018-09-02T03:04:50.715Z,14.86
2018-09-02T03:05:51.185Z,14.88
2018-09-02T03:06:51.658Z,14.89
2018-09-02T03:07:52.191Z,14.92
2018-09-02T03:08:52.606Z,14.93
2018-09-02T03:09:53.078Z,14.94
2018-09-02T03:10:53.633Z,14.96
2018-09-02T03:11:54.024Z,14.96
2018-09-02T03:12:54.496Z,14.95
2018-09-02T03:13:54.970Z,14.94
2018-09-02T03:14:55.443Z,14.88
2018-09-02T03:15:55.918Z,14.80
2018-09-02T03:16:56.389Z,14.70
2018-09-02T03:17:56.862Z,14.58
2018-09-02T03:18:57.334Z,14.46
2018-09-02T03:19:57.807Z,14.33
2018-09-02T03:20:58.281Z,14.19
2018-09-02T03:21:58.804Z,14.02
2018-09-02T03:22:59.227Z,13.85
2018-09-02T03:23:59.699Z,13.71
2018-09-02T03:25:00.174Z,13.56
2018-09-02T03:26:00.644Z,13.42
2018-09-02T03:27:01.116Z,13.27
2018-09-02T03:28:01.590Z,13.13
2018-09-02T03:29:02.061Z,12.97
2018-09-02T03:30:02.580Z,12.81
2018-09-02T03:31:03.001Z,12.61
2018-09-02T03:32:03.476Z,12.44
2018-09-02T03:33:03.944Z,12.29
2018-09-02T03:34:04.413Z,12.18
2018-09-02T03:35:04.921Z,12.11
2018-09-02T03:36:05.356Z,12.04
2018-09-02T03:37:05.825Z,12.01
2018-09-02T03:38:06.302Z,12.01
2018-09-02T03:39:06.766Z,12.01
2018-09-02T03:40:07.236Z,12.01
2018-09-02T03:41:07.706Z,12.06
2018-09-02T03:42:08.172Z,12.08
2018-09-02T03:43:08.645Z,12.12
2018-09-02T03:44:09.113Z,12.14
2018-09-02T03:45:09.784Z,12.19
2018-09-02T03:46:10.051Z,12.27
2018-09-02T03:47:10.521Z,12.32
2018-09-02T03:48:10.990Z,12.43
2018-09-02T03:49:11.461Z,12.49
2018-09-02T03:50:11.929Z,12.57
2018-09-02T03:51:12.398Z,12.66
2018-09-02T03:52:12.869Z,12.73
2018-09-02T03:53:13.337Z,12.82
2018-09-02T03:54:13.810Z,12.91
2018-09-02T03:55:14.277Z,12.99
2018-09-02T03:56:14.746Z,13.09
2018-09-02T03:57:15.218Z,13.17
2018-09-02T03:58:15.688Z,13.25
2018-09-02T03:59:16.162Z,13.30
2018-09-02T04:00:16.626Z,13.39
2018-09-02T04:01:17.100Z,13.44
2018-09-02T04:02:17.568Z,13.51
2018-09-02T04:03:18.036Z,13.58
2018-09-02T04:04:18.507Z,13.66
2018-09-02T04:05:18.977Z,13.72
2018-09-02T04:06:19.446Z,13.77
2018-09-02T04:07:19.916Z,13.81
2018-09-02T04:08:20.389Z,13.86
2018-09-02T04:09:20.857Z,13.90
2018-09-02T04:10:21.329Z,13.95
2018-09-02T04:11:21.849Z,13.99
2018-09-02T04:12:22.273Z,14.05
2018-09-02T04:13:22.741Z,14.12
2018-09-02T04:14:23.215Z,14.15
2018-09-02T04:15:23.686Z,14.19
2018-09-02T04:16:24.157Z,14.25
2018-09-02T04:17:24.627Z,14.29
2018-09-02T04:18:25.100Z,14.34
2018-09-02T04:19:25.570Z,14.39
2018-09-02T04:20:26.042Z,14.40
2018-09-02T04:21:26.513Z,14.46
2018-09-02T04:22:26.987Z,14.49
2018-09-02T04:23:27.459Z,14.49
2018-09-02T04:24:27.929Z,14.52
2018-09-02T04:25:28.405Z,14.54
2018-09-02T04:26:28.873Z,14.59
2018-09-02T04:27:29.347Z,14.61
2018-09-02T04:28:29.820Z,14.65
2018-09-02T04:29:30.294Z,14.69
2018-09-02T04:30:30.761Z,14.72
2018-09-02T04:31:31.236Z,14.73
2018-09-02T04:32:31.709Z,14.76
2018-09-02T04:33:32.184Z,14.78
2018-09-02T04:34:32.656Z,14.80
2018-09-02T04:35:33.127Z,14.83
2018-09-02T04:36:33.600Z,14.86
2018-09-02T04:37:34.074Z,14.90
2018-09-02T04:38:34.547Z,14.93
2018-09-02T04:39:35.019Z,14.94
2018-09-02T04:40:35.492Z,14.93
2018-09-02T04:41:35.966Z,14.92
2018-09-02T04:42:36.438Z,14.88
2018-09-02T04:43:36.911Z,14.80
2018-09-02T04:44:37.385Z,14.70
2018-09-02T04:45:37.862Z,14.60
2018-09-02T04:46:38.329Z,14.48
2018-09-02T04:47:38.806Z,14.33
2018-09-02T04:48:39.280Z,14.19
2018-09-02T04:49:39.750Z,14.04
2018-09-02T04:50:40.222Z,13.88
2018-09-02T04:51:40.693Z,13.74
2018-09-02T04:52:41.175Z,13.60
2018-09-02T04:53:41.641Z,13.46
2018-09-02T04:54:42.111Z,13.29
2018-09-02T04:55:42.585Z,13.14
2018-09-02T04:56:43.058Z,13.00
2018-09-02T04:57:43.528Z,12.83
2018-09-02T04:58:44.000Z,12.67
2018-09-02T04:59:44.497Z,12.50
2018-09-02T05:00:44.939Z,12.34
2018-09-02T05:01:45.412Z,12.23
2018-09-02T05:02:45.880Z,12.13
2018-09-02T05:03:46.353Z,12.06
2018-09-02T05:04:46.823Z,12.01
2018-09-02T05:05:47.294Z,11.99
2018-09-02T05:06:47.964Z,12.00
2018-09-02T05:07:48.233Z,12.02
2018-09-02T05:08:48.704Z,12.04
2018-09-02T05:09:49.173Z,12.07
2018-09-02T05:10:49.641Z,12.13
2018-09-02T05:11:50.111Z,12.17
2018-09-02T05:12:50.583Z,12.24
2018-09-02T05:13:51.051Z,12.32
2018-09-02T05:14:51.518Z,12.40
2018-09-02T05:15:52.040Z,12.50
2018-09-02T05:16:52.457Z,12.57
2018-09-02T05:17:52.928Z,12.66
2018-09-02T05:18:53.400Z,12.76
2018-09-02T05:19:53.867Z,12.85
2018-09-02T05:20:54.388Z,12.96
2018-09-02T05:21:54.805Z,13.06
2018-09-02T05:22:55.274Z,13.17
2018-09-02T05:23:55.748Z,13.24
2018-09-02T05:24:56.217Z,13.34
2018-09-02T05:25:56.686Z,13.44
2018-09-02T05:26:57.156Z,13.51
2018-09-02T05:27:57.625Z,13.60
2018-09-02T05:28:58.097Z,13.65
2018-09-02T05:29:58.567Z,13.74
2018-09-02T05:30:59.036Z,13.80
2018-09-02T05:31:59.508Z,13.88
2018-09-02T05:32:59.978Z,13.96
2018-09-02T05:34:00.448Z,14.01
2018-09-02T05:35:00.920Z,14.07
2018-09-02T05:36:01.391Z,14.15
2018-09-02T05:37:01.900Z,14.23
2018-09-02T05:38:02.331Z,14.29
2018-09-02T05:39:02.803Z,14.32
2018-09-02T05:40:03.275Z,14.36
2018-09-02T05:41:03.746Z,14.39
2018-09-02T05:42:04.219Z,14.47
2018-09-02T05:43:04.687Z,14.49
2018-09-02T05:44:05.235Z,14.52
2018-09-02T05:45:05.632Z,14.56
2018-09-02T05:46:06.105Z,14.58
2018-09-02T05:47:06.575Z,14.60
2018-09-02T05:48:07.046Z,14.63
2018-09-02T05:49:07.518Z,14.64
2018-09-02T05:50:07.990Z,14.67
2018-09-02T05:51:08.463Z,14.68
2018-09-02T05:52:08.935Z,14.71
2018-09-02T05:53:09.409Z,14.75
2018-09-02T05:54:09.880Z,14.80
2018-09-02T05:55:10.352Z,14.82
2018-09-02T05:56:10.876Z,14.86
2018-09-02T05:57:11.301Z,14.89
2018-09-02T05:58:11.770Z,14.89
2018-09-02T05:59:12.243Z,14.91
2018-09-02T06:00:12.721Z,14.93
2018-09-02T06:01:13.188Z,14.94
2018-09-02T06:02:13.662Z,14.97
2018-09-02T06:03:14.137Z,14.99
2018-09-02T06:04:14.607Z,15.02
2018-09-02T06:05:15.082Z,15.05
2018-09-02T06:06:15.556Z,15.07
2018-09-02T06:07:16.026Z,15.10
2018-09-02T06:08:16.504Z,15.09
2018-09-02T06:09:16.975Z,15.06
2018-09-02T06:10:17.448Z,14.99
2018-09-02T06:11:17.969Z,14.90
2018-09-02T06:12:18.394Z,14.80
2018-09-02T06:13:18.868Z,14.68
2018-09-02T06:14:19.341Z,14.56
2018-09-02T06:15:19.813Z,14.42
2018-09-02T06:16:20.288Z,14.27
2018-09-02T06:17:20.811Z,14.13
2018-09-02T06:18:21.233Z,13.99
2018-09-02T06:19:21.706Z,13.84
2018-09-02T06:20:22.178Z,13.70
2018-09-02T06:21:22.852Z,13.55
2018-09-02T06:22:23.123Z,13.39
2018-09-02T06:23:23.592Z,13.25
2018-09-02T06:24:24.071Z,13.10
2018-09-02T06:25:24.537Z,12.94
2018-09-02T06:26:25.008Z,12.78
2018-09-02T06:27:25.480Z,12.60
2018-09-02T06:28:25.949Z,12.46
2018-09-02T06:29:26.424Z,12.36
2018-09-02T06:30:26.891Z,12.28
2018-09-02T06:31:27.361Z,12.21
2018-09-02T06:32:27.835Z,12.18
2018-09-02T06:33:28.305Z,12.17
2018-09-02T06:34:28.773Z,12.19
2018-09-02T06:35:29.301Z,12.20
2018-09-02T06:36:29.712Z,12.23
2018-09-02T06:37:30.181Z,12.26
2018-09-02T06:38:30.651Z,12.31
2018-09-02T06:39:31.171Z,12.36
2018-09-02T06:40:31.588Z,12.40
2018-09-02T06:41:32.061Z,12.50
2018-09-02T06:42:32.529Z,12.59
2018-09-02T06:43:33.079Z,12.69
2018-09-02T06:44:33.470Z,12.77
2018-09-02T06:45:33.949Z,12.84
2018-09-02T06:46:34.408Z,12.95
2018-09-02T06:47:34.877Z,13.05
2018-09-02T06:48:35.346Z,13.17
2018-09-02T06:49:35.815Z,13.30
2018-09-02T06:50:36.287Z,13.37
2018-09-02T06:51:36.757Z,13.49
2018-09-02T06:52:37.227Z,13.57
2018-09-02T06:53:37.697Z,13.66
2018-09-02T06:54:38.168Z,13.77
2018-09-02T06:55:38.637Z,13.84
2018-09-02T06:56:39.107Z,13.91
2018-09-02T06:57:39.577Z,13.99
2018-09-02T06:58:40.094Z,14.05
2018-09-02T06:59:40.521Z,14.12
2018-09-02T07:00:40.995Z,14.21
2018-09-02T07:01:41.462Z,14.26
2018-09-02T07:02:41.932Z,14.31
2018-09-02T07:03:42.409Z,14.38
2018-09-02T07:04:42.872Z,14.44
2018-09-02T07:05:43.365Z,14.48
2018-09-02T07:06:43.867Z,14.52
2018-09-02T07:07:44.287Z,14.56
2018-09-02T07:08:44.757Z,14.63
2018-09-02T07:09:45.231Z,14.68
2018-09-02T07:10:45.701Z,14.71
2018-09-02T07:11:46.175Z,14.74
2018-09-02T07:12:46.643Z,14.77
2018-09-02T07:13:47.117Z,14.85
2018-09-02T07:14:47.592Z,14.89
2018-09-02T07:15:48.060Z,14.91
2018-09-02T07:16:48.532Z,14.92
2018-09-02T07:17:49.003Z,14.97
2018-09-02T07:18:49.478Z,15.02
2018-09-02T07:19:49.949Z,15.08
2018-09-02T07:20:50.422Z,15.06
2018-09-02T07:21:50.894Z,15.08
2018-09-02T07:22:51.366Z,15.14
2018-09-02T07:23:51.841Z,15.17
2018-09-02T07:24:52.310Z,15.20
2018-09-02T07:25:52.785Z,15.25
2018-09-02T07:26:53.260Z,15.28
2018-09-02T07:27:53.733Z,15.31
2018-09-02T07:28:54.204Z,15.33
2018-09-02T07:29:54.676Z,15.33
2018-09-02T07:30:55.150Z,15.33
2018-09-02T07:31:55.672Z,15.29
2018-09-02T07:32:56.096Z,15.24
2018-09-02T07:33:56.569Z,15.16
2018-09-02T07:34:57.043Z,15.06
2018-09-02T07:35:57.516Z,14.96
2018-09-02T07:36:57.991Z,14.84
2018-09-02T07:37:58.462Z,14.71
2018-09-02T07:38:58.935Z,14.57
2018-09-02T07:39:59.408Z,14.44
2018-09-02T07:40:59.881Z,14.31
2018-09-02T07:42:00.353Z,14.18
2018-09-02T07:43:00.828Z,14.05
2018-09-02T07:44:01.343Z,13.90
2018-09-02T07:45:01.775Z,13.77
2018-09-02T07:46:02.244Z,13.61
2018-09-02T07:47:02.716Z,13.47
2018-09-02T07:48:03.191Z,13.33
2018-09-02T07:49:03.658Z,13.18
2018-09-02T07:50:04.131Z,13.03
2018-09-02T07:51:04.603Z,12.88
2018-09-02T07:52:05.071Z,12.74
2018-09-02T07:53:05.542Z,12.64
2018-09-02T07:54:06.015Z,12.56
2018-09-02T07:55:06.486Z,12.50
2018-09-02T07:56:06.956Z,12.47
2018-09-02T07:57:07.424Z,12.47
2018-09-02T07:58:07.895Z,12.50
2018-09-02T07:59:08.369Z,12.51
2018-09-02T08:00:08.834Z,12.54
2018-09-02T08:01:09.304Z,12.57
2018-09-02T08:02:09.775Z,12.62
2018-09-02T08:03:10.245Z,12.68
2018-09-02T08:04:10.713Z,12.75
2018-09-02T08:05:11.183Z,12.86
2018-09-02T08:06:11.653Z,12.95
2018-09-02T08:07:12.124Z,13.05
2018-09-02T08:08:12.593Z,13.18
2018-09-02T08:09:13.060Z,13.26
2018-09-02T08:10:13.536Z,13.38
2018-09-02T08:11:14.003Z,13.52
2018-09-02T08:12:14.485Z,13.61
2018-09-02T08:13:14.943Z,13.73
2018-09-02T08:14:15.414Z,13.81
2018-09-02T08:15:15.883Z,13.88
2018-09-02T08:16:16.355Z,13.98
2018-09-02T08:17:16.823Z,14.05
2018-09-02T08:18:17.292Z,14.14
2018-09-02T08:19:17.770Z,14.21
2018-09-02T08:20:18.233Z,14.28
2018-09-02T08:21:18.705Z,14.36
2018-09-02T08:22:19.175Z,14.45
2018-09-02T08:23:19.649Z,14.52
2018-09-02T08:24:20.116Z,14.61
2018-09-02T08:25:20.588Z,14.66
2018-09-02T08:26:21.058Z,14.75
2018-09-02T08:27:21.532Z,14.84
2018-09-02T08:28:22.003Z,14.95
2018-09-02T08:29:22.474Z,14.98
2018-09-02T08:30:22.947Z,15.07
2018-09-02T08:31:23.417Z,15.15
2018-09-02T08:32:23.990Z,15.20
2018-09-02T08:33:24.362Z,15.30
2018-09-02T08:34:24.835Z,15.33
2018-09-02T08:35:25.307Z,15.39
2018-09-02T08:36:25.777Z,15.44
2018-09-02T08:37:26.250Z,15.50
2018-09-02T08:38:26.722Z,15.53
2018-09-02T08:39:27.194Z,15.55
2018-09-02T08:40:27.667Z,15.61
2018-09-02T08:41:28.145Z,15.65
2018-09-02T08:42:28.619Z,15.68
2018-09-02T08:43:29.089Z,15.74
2018-09-02T08:44:29.560Z,15.77
2018-09-02T08:45:30.033Z,15.84
2018-09-02T08:46:30.507Z,15.86
2018-09-02T08:47:30.980Z,15.88
2018-09-02T08:48:31.457Z,15.89
2018-09-02T08:49:31.926Z,15.88
2018-09-02T08:50:32.415Z,15.84
2018-09-02T08:51:32.876Z,15.77
2018-09-02T08:52:33.349Z,15.71
2018-09-02T08:53:33.821Z,15.62
2018-09-02T08:54:34.295Z,15.52
2018-09-02T08:55:34.769Z,15.40
2018-09-02T08:56:35.241Z,15.29
2018-09-02T08:57:35.715Z,15.16
2018-09-02T08:58:36.189Z,15.07
2018-09-02T08:59:36.665Z,14.97
2018-09-02T09:00:37.137Z,14.85
2018-09-02T09:01:37.663Z,14.73
2018-09-02T09:02:38.083Z,14.59
2018-09-02T09:03:38.554Z,14.47
2018-09-02T09:04:39.025Z,14.34
2018-09-02T09:05:39.500Z,14.22
2018-09-02T09:06:39.974Z,14.09
2018-09-02T09:07:40.639Z,13.94
2018-09-02T09:08:41.034Z,13.82
2018-09-02T09:09:41.387Z,13.70
2018-09-02T09:10:41.864Z,13.57
2018-09-02T09:11:42.337Z,13.46
2018-09-02T09:12:42.805Z,13.36
2018-09-02T09:13:43.275Z,13.30
2018-09-02T09:14:43.743Z,13.25
2018-09-02T09:15:44.213Z,13.23
2018-09-02T09:16:44.782Z,13.24
2018-09-02T09:17:45.156Z,13.29
2018-09-02T09:18:45.625Z,13.37
2018-09-02T09:19:46.096Z,13.42
2018-09-02T09:20:46.566Z,13.50
2018-09-02T09:21:47.040Z,13.58
2018-09-02T09:22:47.539Z,13.65
2018-09-02T09:23:47.977Z,13.73
2018-09-02T09:24:48.448Z,13.85
2018-09-02T09:25:48.917Z,13.94
2018-09-02T09:26:49.390Z,14.07
2018-09-02T09:27:49.858Z,14.22
2018-09-02T09:28:50.330Z,14.34
2018-09-02T09:29:50.799Z,14.47
2018-09-02T09:30:51.268Z,14.60
2018-09-02T09:31:51.744Z,14.73
2018-09-02T09:32:52.210Z,14.83
2018-09-02T09:33:52.681Z,14.95
2018-09-02T09:34:53.153Z,15.07
2018-09-02T09:35:53.624Z,15.19
2018-09-02T09:36:54.093Z,15.30
2018-09-02T09:37:54.568Z,15.43
2018-09-02T09:38:55.038Z,15.55
2018-09-02T09:39:55.509Z,15.68
2018-09-02T09:40:55.979Z,15.80
2018-09-02T09:41:56.451Z,15.90
2018-09-02T09:42:56.927Z,16.02
2018-09-02T09:43:57.397Z,16.12
2018-09-02T09:44:57.873Z,16.22
2018-09-02T09:45:58.373Z,16.32
2018-09-02T09:46:58.812Z,16.40
2018-09-02T09:47:59.287Z,16.51
2018-09-02T09:48:59.758Z,16.58
2018-09-02T09:50:00.230Z,16.65
2018-09-02T09:51:00.703Z,16.72
2018-09-02T09:52:01.180Z,16.79
2018-09-02T09:53:01.651Z,16.88
2018-09-02T09:54:02.123Z,16.91
2018-09-02T09:55:02.597Z,16.95
2018-09-02T09:56:03.072Z,16.96
2018-09-02T09:57:03.548Z,16.97
2018-09-02T09:58:04.020Z,16.95
2018-09-02T09:59:04.493Z,16.92
2018-09-02T10:00:04.968Z,16.88
2018-09-02T10:01:05.440Z,16.82
2018-09-02T10:02:05.916Z,16.76
2018-09-02T10:03:06.388Z,16.67
2018-09-02T10:04:06.864Z,16.56
2018-09-02T10:05:07.339Z,16.45
2018-09-02T10:06:07.811Z,16.34
2018-09-02T10:07:08.287Z,16.23
2018-09-02T10:08:08.759Z,16.12
2018-09-02T10:09:09.233Z,16.03
2018-09-02T10:10:09.707Z,15.93
2018-09-02T10:11:10.179Z,15.82
2018-09-02T10:12:10.657Z,15.72
2018-09-02T10:13:11.186Z,15.62
2018-09-02T10:14:11.601Z,15.52
2018-09-02T10:15:12.073Z,15.43
2018-09-02T10:16:12.548Z,15.34
2018-09-02T10:17:13.044Z,15.24
2018-09-02T10:18:13.595Z,15.15
2018-09-02T10:19:13.964Z,15.06
2018-09-02T10:20:14.437Z,14.98
2018-09-02T10:21:14.910Z,14.89
2018-09-02T10:22:15.382Z,14.81
2018-09-02T10:23:15.854Z,14.73
2018-09-02T10:24:16.324Z,14.64
2018-09-02T10:25:16.797Z,14.56
2018-09-02T10:26:17.272Z,14.49
2018-09-02T10:27:17.761Z,14.43
2018-09-02T10:28:18.211Z,14.40
2018-09-02T10:29:18.680Z,14.40
2018-09-02T10:30:19.151Z,14.43
2018-09-02T10:31:19.624Z,14.47
2018-09-02T10:32:20.101Z,14.53
2018-09-02T10:33:20.575Z,14.62
2018-09-02T10:34:21.036Z,14.72
2018-09-02T10:35:21.505Z,14.82
2018-09-02T10:36:21.978Z,14.92
2018-09-02T10:37:22.446Z,15.05
2018-09-02T10:38:22.967Z,15.19
2018-09-02T10:39:23.388Z,15.33
2018-09-02T10:40:23.859Z,15.47
2018-09-02T10:41:24.415Z,15.61
2018-09-02T10:42:24.806Z,15.77
2018-09-02T10:43:25.273Z,15.89
2018-09-02T10:44:25.746Z,16.03
2018-09-02T10:45:26.215Z,16.17
2018-09-02T10:46:26.687Z,16.31
2018-09-02T10:47:27.168Z,16.46
2018-09-02T10:48:27.630Z,16.60
2018-09-02T10:49:28.105Z,16.74
2018-09-02T10:50:28.574Z,16.86
2018-09-02T10:51:29.047Z,16.96
2018-09-02T10:52:29.518Z,17.08
2018-09-02T10:53:29.990Z,17.20
2018-09-02T10:54:30.463Z,17.33
2018-09-02T10:55:30.937Z,17.47
2018-09-02T10:56:31.412Z,17.60
2018-09-02T10:57:31.884Z,17.71
2018-09-02T10:58:32.357Z,17.83
2018-09-02T10:59:33.039Z,17.92
2018-09-02T11:00:33.304Z,18.00
2018-09-02T11:01:33.777Z,18.05
2018-09-02T11:02:34.254Z,18.11
2018-09-02T11:03:34.726Z,18.12
2018-09-02T11:04:35.202Z,18.13
2018-09-02T11:05:35.677Z,18.10
2018-09-02T11:06:36.147Z,18.06
2018-09-02T11:07:36.643Z,18.01
2018-09-02T11:08:37.189Z,17.94
2018-09-02T11:09:37.573Z,17.88
2018-09-02T11:10:38.048Z,17.80
2018-09-02T11:11:38.524Z,17.72
2018-09-02T11:12:38.997Z,17.63
2018-09-02T11:13:39.622Z,17.54
2018-09-02T11:14:39.946Z,17.43
2018-09-02T11:15:40.420Z,17.34
2018-09-02T11:16:40.895Z,17.24
2018-09-02T11:17:41.368Z,17.14
2018-09-02T11:18:41.842Z,17.05
2018-09-02T11:19:42.320Z,16.95
2018-09-02T11:20:42.791Z,16.85
2018-09-02T11:21:43.263Z,16.75
2018-09-02T11:22:43.737Z,16.65
2018-09-02T11:23:44.289Z,16.56
2018-09-02T11:24:44.726Z,16.46
2018-09-02T11:25:45.155Z,16.38
2018-09-02T11:26:45.629Z,16.29
2018-09-02T11:27:46.103Z,16.21
2018-09-02T11:28:46.577Z,16.14
2018-09-02T11:29:47.262Z,16.06
2018-09-02T11:30:47.520Z,15.98
2018-09-02T11:31:47.994Z,15.91
2018-09-02T11:32:48.465Z,15.84
2018-09-02T11:33:48.988Z,15.77
2018-09-02T11:34:49.407Z,15.68
2018-09-02T11:35:49.884Z,15.60
2018-09-02T11:36:50.358Z,15.53
2018-09-02T11:37:50.826Z,15.46
2018-09-02T11:38:51.295Z,15.41
2018-09-02T11:39:51.767Z,15.38
2018-09-02T11:40:52.241Z,15.37
2018-09-02T11:41:52.713Z,15.39
2018-09-02T11:42:53.179Z,15.43
2018-09-02T11:43:53.651Z,15.46
2018-09-02T11:44:54.155Z,15.54
2018-09-02T11:45:54.590Z,15.63
2018-09-02T11:46:55.156Z,15.76
2018-09-02T11:47:55.533Z,15.89
2018-09-02T11:48:56.055Z,16.02
2018-09-02T11:49:56.473Z,16.13
2018-09-02T11:50:56.947Z,16.26
2018-09-02T11:51:57.418Z,16.41
2018-09-02T11:52:57.889Z,16.56
2018-09-02T11:53:58.359Z,16.71
2018-09-02T11:54:58.830Z,16.84
2018-09-02T11:55:59.303Z,17.01
2018-09-02T11:56:59.775Z,17.16
2018-09-02T11:58:00.251Z,17.29
2018-09-02T11:59:00.718Z,17.41
2018-09-02T12:00:01.190Z,17.56
2018-09-02T12:01:01.663Z,17.68
2018-09-02T12:02:02.133Z,17.81
2018-09-02T12:03:02.610Z,17.94
2018-09-02T12:04:03.163Z,18.07
2018-09-02T12:05:03.552Z,18.19
2018-09-02T12:06:04.026Z,18.31
2018-09-02T12:07:04.500Z,18.42
2018-09-02T12:08:04.972Z,18.53
2018-09-02T12:09:05.577Z,18.65
2018-09-02T12:10:05.921Z,18.75
2018-09-02T12:11:06.395Z,18.83
2018-09-02T12:12:06.872Z,18.89
2018-09-02T12:13:07.345Z,18.91
2018-09-02T12:14:07.869Z,18.91
2018-09-02T12:15:08.293Z,18.89
2018-09-02T12:16:08.768Z,18.87
2018-09-02T12:17:09.244Z,18.81
2018-09-02T12:18:09.721Z,18.73
2018-09-02T12:19:10.193Z,18.67
2018-09-02T12:20:10.667Z,18.60
2018-09-02T12:21:11.146Z,18.54
2018-09-02T12:22:11.615Z,18.45
2018-09-02T12:23:12.093Z,18.36
2018-09-02T12:24:12.567Z,18.28
2018-09-02T12:25:13.043Z,18.19
2018-09-02T12:26:13.536Z,18.10
2018-09-02T12:27:13.991Z,18.01
2018-09-02T12:28:14.466Z,17.93
2018-09-02T12:29:14.940Z,17.84
2018-09-02T12:30:15.414Z,17.74
2018-09-02T12:31:15.889Z,17.64
2018-09-02T12:32:16.365Z,17.55
2018-09-02T12:33:16.839Z,17.45
2018-09-02T12:34:17.311Z,17.37
2018-09-02T12:35:17.784Z,17.29
2018-09-02T12:36:18.259Z,17.22
2018-09-02T12:37:18.734Z,17.15
2018-09-02T12:38:19.206Z,17.07
2018-09-02T12:39:19.680Z,17.01
2018-09-02T12:40:20.152Z,16.94
2018-09-02T12:41:20.625Z,16.87
2018-09-02T12:42:21.167Z,16.80
2018-09-02T12:43:21.573Z,16.73
2018-09-02T12:44:22.044Z,16.65
2018-09-02T12:45:22.516Z,16.58
2018-09-02T12:46:22.986Z,16.51
2018-09-02T12:47:23.461Z,16.44
2018-09-02T12:48:23.937Z,16.38
2018-09-02T12:49:24.407Z,16.33
2018-09-02T12:50:24.879Z,16.29
2018-09-02T12:51:25.350Z,16.26
2018-09-02T12:52:25.822Z,16.21
2018-09-02T12:53:26.294Z,16.18
2018-09-02T12:54:26.775Z,16.15
2018-09-02T12:55:27.236Z,16.12
2018-09-02T12:56:27.709Z,16.10
2018-09-02T12:57:28.180Z,16.09
2018-09-02T12:58:28.651Z,16.10